createdAt,value
2019-02-07T00:00:09.457Z,10.80
2019-02-07T00:01:09.445Z,11.20
2019-02-07T00:02:09.465Z,11.20
2019-02-07T00:03:09.481Z,11.70
2019-02-07T00:04:09.416Z,11.10
2019-02-07T00:05:09.407Z,11.90
2019-02-07T00:06:09.401Z,11.30
2019-02-07T00:07:09.432Z,10.50
2019-02-07T00:08:09.372Z,11.40
2019-02-07T00:09:09.359Z,11.40
2019-02-07T00:10:09.404Z,12.00
2019-02-07T00:11:09.391Z,11.90
2019-02-07T00:12:09.360Z,11.60
2019-02-07T00:13:09.320Z,11.70
2019-02-07T00:14:09.305Z,11.40
2019-02-07T00:15:09.297Z,11.90
2019-02-07T00:16:09.286Z,11.50
2019-02-07T00:17:09.305Z,11.50
2019-02-07T00:18:09.267Z,11.60
2019-02-07T00:19:09.267Z,10.90
2019-02-07T00:20:09.274Z,11.20
2019-02-07T00:21:09.248Z,12.00
2019-02-07T00:22:09.226Z,11.90
2019-02-07T00:23:09.212Z,12.00
2019-02-07T00:24:09.259Z,12.20
2019-02-07T00:25:09.224Z,11.80
2019-02-07T00:26:09.184Z,11.90
2019-02-07T00:27:09.193Z,11.20
2019-02-07T00:28:09.167Z,11.90
2019-02-07T00:29:09.175Z,11.50
2019-02-07T00:30:09.164Z,12.00
2019-02-07T00:31:09.236Z,12.00
2019-02-07T00:32:09.117Z,12.60
2019-02-07T00:33:09.106Z,11.80
2019-02-07T00:34:09.124Z,12.10
2019-02-07T00:35:09.082Z,12.30
2019-02-07T00:36:09.092Z,12.70
2019-02-07T00:37:09.135Z,12.20
2019-02-07T00:38:09.050Z,11.90
2019-02-07T00:39:09.079Z,12.70
2019-02-07T00:40:09.029Z,12.20
2019-02-07T00:41:09.022Z,12.50
2019-02-07T00:42:09.070Z,12.30
2019-02-07T00:43:09.039Z,11.30
2019-02-07T00:44:09.057Z,11.70
2019-02-07T00:45:08.994Z,12.50
2019-02-07T00:46:08.976Z,11.80
2019-02-07T00:47:08.957Z,11.90
2019-02-07T00:48:08.960Z,12.30
2019-02-07T00:49:08.971Z,11.60
2019-02-07T00:50:08.921Z,11.20
2019-02-07T00:51:08.927Z,12.00
2019-02-07T00:52:08.902Z,11.90
2019-02-07T00:53:08.943Z,12.20
2019-02-07T00:54:08.882Z,11.90
2019-02-07T00:55:08.871Z,11.40
2019-02-07T00:56:08.869Z,12.30
2019-02-07T00:57:08.845Z,11.80
2019-02-07T00:58:08.870Z,11.70
2019-02-07T00:59:08.833Z,12.20
2019-02-07T01:00:08.817Z,12.50
2019-02-07T01:01:08.807Z,12.30
2019-02-07T01:02:08.860Z,11.80
2019-02-07T01:03:08.805Z,11.90
2019-02-07T01:04:08.776Z,12.40
2019-02-07T01:05:08.770Z,11.40
2019-02-07T01:06:08.784Z,12.70
2019-02-07T01:07:08.741Z,12.30
2019-02-07T01:08:08.735Z,12.10
2019-02-07T01:09:08.766Z,12.90
2019-02-07T01:10:08.717Z,12.80
2019-02-07T01:11:08.708Z,12.80
2019-02-07T01:12:08.689Z,12.10
2019-02-07T01:13:08.706Z,13.00
2019-02-07T01:14:08.693Z,13.30
2019-02-07T01:15:08.659Z,12.80
2019-02-07T01:16:08.659Z,11.80
2019-02-07T01:17:08.643Z,12.40
2019-02-07T01:18:08.650Z,12.80
2019-02-07T01:19:08.608Z,12.60
2019-02-07T01:20:08.597Z,13.00
2019-02-07T01:21:08.596Z,12.60
2019-02-07T01:22:08.581Z,12.80
2019-02-07T01:23:08.617Z,11.50
2019-02-07T01:24:08.572Z,12.40
2019-02-07T01:25:08.550Z,12.00
2019-02-07T01:26:08.560Z,13.20
2019-02-07T01:27:08.554Z,12.10
2019-02-07T01:28:08.511Z,13.60
2019-02-07T01:29:08.537Z,12.40
2019-02-07T01:30:08.523Z,14.40
2019-02-07T01:31:08.496Z,13.60
2019-02-07T01:32:08.488Z,13.50
2019-02-07T01:33:08.500Z,13.20
2019-02-07T01:34:08.474Z,13.30
2019-02-07T01:35:08.430Z,13.60
2019-02-07T01:36:08.460Z,12.80
2019-02-07T01:37:08.456Z,12.60
2019-02-07T01:38:08.435Z,11.80
2019-02-07T01:39:08.391Z,14.80
2019-02-07T01:40:08.395Z,12.50
2019-02-07T01:41:08.389Z,13.70
2019-02-07T01:42:08.453Z,13.30
2019-02-07T01:43:08.370Z,14.40
2019-02-07T01:44:08.337Z,14.40
2019-02-07T01:45:13.041Z,14.90
2019-02-07T01:46:09.379Z,14.30
2019-02-07T01:47:08.307Z,14.30
2019-02-07T01:48:08.290Z,15.30
2019-02-07T01:49:08.289Z,14.00
2019-02-07T01:50:08.308Z,15.70
2019-02-07T01:51:08.306Z,14.10
2019-02-07T01:52:08.266Z,14.80
2019-02-07T01:53:08.271Z,15.30
2019-02-07T01:54:08.224Z,15.10
2019-02-07T01:55:08.264Z,15.60
2019-02-07T01:56:08.232Z,14.20
2019-02-07T01:57:08.222Z,15.30
2019-02-07T01:58:08.179Z,14.10
2019-02-07T01:59:08.169Z,15.20
2019-02-07T02:00:08.179Z,15.40
2019-02-07T02:01:08.191Z,14.90
2019-02-07T02:02:08.147Z,15.60
2019-02-07T02:03:08.149Z,14.50
2019-02-07T02:04:08.110Z,15.30
2019-02-07T02:05:08.101Z,15.10
2019-02-07T02:06:08.123Z,14.30
2019-02-07T02:07:08.081Z,15.10
2019-02-07T02:08:08.071Z,14.50
2019-02-07T02:09:08.102Z,14.50
2019-02-07T02:10:08.055Z,14.60
2019-02-07T02:11:08.043Z,14.50
2019-02-07T02:12:08.062Z,14.70
2019-02-07T02:13:08.017Z,15.00
2019-02-07T02:14:08.076Z,14.50
2019-02-07T02:15:07.990Z,13.40
2019-02-07T02:16:07.989Z,13.60
2019-02-07T02:17:08.004Z,13.10
2019-02-07T02:18:07.976Z,13.20
2019-02-07T02:19:07.970Z,13.90
2019-02-07T02:20:07.953Z,14.20
2019-02-07T02:21:07.936Z,13.90
2019-02-07T02:22:07.958Z,14.20
2019-02-07T02:23:07.931Z,14.00
2019-02-07T02:24:07.901Z,11.80
2019-02-07T02:25:07.888Z,14.30
2019-02-07T02:26:07.900Z,12.90
2019-02-07T02:27:07.896Z,12.40
2019-02-07T02:28:07.949Z,12.70
2019-02-07T02:29:07.846Z,13.50
2019-02-07T02:30:07.860Z,13.60
2019-02-07T02:31:07.813Z,13.40
2019-02-07T02:32:07.826Z,13.30
2019-02-07T02:33:07.817Z,14.10
2019-02-07T02:34:07.783Z,12.00
2019-02-07T02:35:07.773Z,14.40
2019-02-07T02:36:07.785Z,13.20
2019-02-07T02:37:07.750Z,13.10
2019-02-07T02:38:07.736Z,13.40
2019-02-07T02:39:07.770Z,14.20
2019-02-07T02:40:07.713Z,14.90
2019-02-07T02:41:07.732Z,12.40
2019-02-07T02:42:07.693Z,14.40
2019-02-07T02:43:07.678Z,15.20
2019-02-07T02:44:07.695Z,13.10
2019-02-07T02:45:07.658Z,13.20
2019-02-07T02:46:07.662Z,13.50
2019-02-07T02:47:07.655Z,13.20
2019-02-07T02:48:07.671Z,13.70
2019-02-07T02:49:07.615Z,12.90
2019-02-07T02:50:07.601Z,14.60
2019-02-07T02:51:07.623Z,15.40
2019-02-07T02:52:07.581Z,14.70
2019-02-07T02:53:07.571Z,14.20
2019-02-07T02:54:07.558Z,15.10
2019-02-07T02:55:07.572Z,14.80
2019-02-07T02:56:07.567Z,14.90
2019-02-07T02:57:07.525Z,14.80
2019-02-07T02:58:07.516Z,15.70
2019-02-07T02:59:07.503Z,15.50
2019-02-07T03:00:07.496Z,14.10
2019-02-07T03:01:07.515Z,16.40
2019-02-07T03:02:07.474Z,16.60
2019-02-07T03:03:07.457Z,15.20
2019-02-07T03:04:07.472Z,15.40
2019-02-07T03:05:07.470Z,15.00
2019-02-07T03:06:07.461Z,16.00
2019-02-07T03:07:07.415Z,15.00
2019-02-07T03:08:07.411Z,15.20
2019-02-07T03:09:07.396Z,16.00
2019-02-07T03:10:07.377Z,14.80
2019-02-07T03:11:07.421Z,13.80
2019-02-07T03:12:07.372Z,15.80
2019-02-07T03:13:07.368Z,15.70
2019-02-07T03:14:07.352Z,15.00
2019-02-07T03:15:07.331Z,15.90
2019-02-07T03:16:07.337Z,14.70
2019-02-07T03:17:07.302Z,14.30
2019-02-07T03:18:07.295Z,15.90
2019-02-07T03:19:07.309Z,15.80
2019-02-07T03:20:07.271Z,16.50
2019-02-07T03:21:07.264Z,15.70
2019-02-07T03:22:07.267Z,17.30
2019-02-07T03:23:07.268Z,16.30
2019-02-07T03:24:07.253Z,16.50
2019-02-07T03:25:07.243Z,17.00
2019-02-07T03:26:07.206Z,16.50
2019-02-07T03:27:07.191Z,16.60
2019-02-07T03:28:07.181Z,14.90
2019-02-07T03:29:07.166Z,15.90
2019-02-07T03:30:07.186Z,16.60
2019-02-07T03:31:07.152Z,16.10
2019-02-07T03:32:07.144Z,15.50
2019-02-07T03:33:07.132Z,16.00
2019-02-07T03:34:07.112Z,14.00
2019-02-07T03:35:07.139Z,15.90
2019-02-07T03:36:07.090Z,15.10
2019-02-07T03:37:07.077Z,16.30
2019-02-07T03:38:07.073Z,16.50
2019-02-07T03:39:07.061Z,16.60
2019-02-07T03:40:07.080Z,15.30
2019-02-07T03:41:07.032Z,16.20
2019-02-07T03:42:07.041Z,17.10
2019-02-07T03:43:07.013Z,16.60
2019-02-07T03:44:07.005Z,16.60
2019-02-07T03:45:07.029Z,15.70
2019-02-07T03:46:06.995Z,15.80
2019-02-07T03:47:06.965Z,14.70
2019-02-07T03:48:06.964Z,14.80
2019-02-07T03:49:06.945Z,16.20
2019-02-07T03:50:06.959Z,14.50
2019-02-07T03:51:06.989Z,13.20
2019-02-07T03:52:06.920Z,14.30
2019-02-07T03:53:06.929Z,14.50
2019-02-07T03:54:06.891Z,14.70
2019-02-07T03:55:06.954Z,16.20
2019-02-07T03:56:06.895Z,15.30
2019-02-07T03:57:06.866Z,15.60
2019-02-07T03:58:06.879Z,14.70
2019-02-07T03:59:06.844Z,16.20
2019-02-07T04:00:06.821Z,15.50
2019-02-07T04:01:06.860Z,15.80
2019-02-07T04:02:06.827Z,18.10
2019-02-07T04:03:06.792Z,17.00
2019-02-07T04:04:06.778Z,14.30
2019-02-07T04:05:06.793Z,15.90
2019-02-07T04:06:06.794Z,15.60
2019-02-07T04:07:06.747Z,15.70
2019-02-07T04:08:06.741Z,17.40
2019-02-07T04:09:06.720Z,14.50
2019-02-07T04:10:06.715Z,15.50
2019-02-07T04:11:06.731Z,15.50
2019-02-07T04:12:06.697Z,14.30
2019-02-07T04:13:06.679Z,15.70
2019-02-07T04:14:06.703Z,15.10
2019-02-07T04:15:06.693Z,15.00
2019-02-07T04:16:14.824Z,13.60
2019-02-07T04:17:07.655Z,14.10
2019-02-07T04:18:06.623Z,14.50
2019-02-07T04:19:06.613Z,15.20
2019-02-07T04:20:06.641Z,15.50
2019-02-07T04:21:06.597Z,15.20
2019-02-07T04:22:06.576Z,15.10
2019-02-07T04:23:06.573Z,13.20
2019-02-07T04:24:06.558Z,14.80
2019-02-07T04:25:06.569Z,14.50
2019-02-07T04:26:06.558Z,13.50
2019-02-07T04:27:06.520Z,15.70
2019-02-07T04:28:06.510Z,14.90
2019-02-07T04:29:06.506Z,13.80
2019-02-07T04:30:06.499Z,15.10
2019-02-07T04:31:06.520Z,15.50
2019-02-07T04:32:06.469Z,16.20
2019-02-07T04:33:06.458Z,13.00
2019-02-07T04:34:06.443Z,15.00
2019-02-07T04:35:06.431Z,13.70
2019-02-07T04:36:06.450Z,14.00
2019-02-07T04:37:06.419Z,14.20
2019-02-07T04:38:06.405Z,15.20
2019-02-07T04:39:06.398Z,14.10
2019-02-07T04:40:06.376Z,13.30
2019-02-07T04:41:06.396Z,14.90
2019-02-07T04:42:06.357Z,16.10
2019-02-07T04:43:06.349Z,15.20
2019-02-07T04:44:06.337Z,15.60
2019-02-07T04:45:06.324Z,13.70
2019-02-07T04:46:06.336Z,14.50
2019-02-07T04:47:06.301Z,11.60
2019-02-07T04:48:06.292Z,15.70
2019-02-07T04:49:06.278Z,15.20
2019-02-07T04:50:06.397Z,14.20
2019-02-07T04:51:06.283Z,15.40
2019-02-07T04:52:06.245Z,10.90
2019-02-07T04:53:06.270Z,15.00
2019-02-07T04:54:06.238Z,15.10
2019-02-07T04:55:06.212Z,14.00
2019-02-07T04:56:06.201Z,14.40
2019-02-07T04:57:06.194Z,14.30
2019-02-07T04:58:06.219Z,15.20
2019-02-07T04:59:06.167Z,13.80
2019-02-07T05:00:06.167Z,15.80
2019-02-07T05:01:06.148Z,15.10
2019-02-07T05:02:06.185Z,15.40
2019-02-07T05:03:06.121Z,13.60
2019-02-07T05:04:06.120Z,14.40
2019-02-07T05:05:06.129Z,14.70
2019-02-07T05:06:06.085Z,14.10
2019-02-07T05:07:06.091Z,15.90
2019-02-07T05:08:06.095Z,15.50
2019-02-07T05:09:06.055Z,15.40
2019-02-07T05:10:06.096Z,15.60
2019-02-07T05:11:06.037Z,14.70
2019-02-07T05:12:06.023Z,14.80
2019-02-07T05:13:06.011Z,15.10
2019-02-07T05:14:06.000Z,15.60
2019-02-07T05:15:06.014Z,16.00
2019-02-07T05:16:05.981Z,15.70
2019-02-07T05:17:05.992Z,15.20
2019-02-07T05:18:05.969Z,14.90
2019-02-07T05:19:05.947Z,14.90
2019-02-07T05:20:05.960Z,14.40
2019-02-07T05:21:05.922Z,15.90
2019-02-07T05:22:05.946Z,15.10
2019-02-07T05:23:05.903Z,16.10
2019-02-07T05:24:05.915Z,15.90
2019-02-07T05:25:05.881Z,13.90
2019-02-07T05:26:05.870Z,14.70
2019-02-07T05:27:05.900Z,15.30
2019-02-07T05:28:05.848Z,14.30
2019-02-07T05:29:05.835Z,15.70
2019-02-07T05:30:05.830Z,14.70
2019-02-07T05:31:05.813Z,15.30
2019-02-07T05:32:05.837Z,11.80
2019-02-07T05:33:05.788Z,14.80
2019-02-07T05:34:05.780Z,15.10
2019-02-07T05:35:05.766Z,15.60
2019-02-07T05:36:05.757Z,15.00
2019-02-07T05:37:05.780Z,14.80
2019-02-07T05:38:05.743Z,15.10
2019-02-07T05:39:05.722Z,13.60
2019-02-07T05:40:05.730Z,15.50
2019-02-07T05:41:05.718Z,14.20
2019-02-07T05:42:05.732Z,15.20
2019-02-07T05:43:05.680Z,14.70
2019-02-07T05:44:05.680Z,14.60
2019-02-07T05:45:05.660Z,14.80
2019-02-07T05:46:05.643Z,13.50
2019-02-07T05:47:05.666Z,14.50
2019-02-07T05:48:05.628Z,15.10
2019-02-07T05:49:05.612Z,14.40
2019-02-07T05:50:05.606Z,14.20
2019-02-07T05:51:05.592Z,15.20
2019-02-07T05:52:05.647Z,15.10
2019-02-07T05:53:05.567Z,15.40
2019-02-07T05:54:05.561Z,15.50
2019-02-07T05:55:05.579Z,15.80
2019-02-07T05:56:05.540Z,15.00
2019-02-07T05:57:05.551Z,15.50
2019-02-07T05:58:05.511Z,14.50
2019-02-07T05:59:05.504Z,15.00
2019-02-07T06:00:05.506Z,14.30
2019-02-07T06:01:05.552Z,15.00
2019-02-07T06:02:05.466Z,15.30
2019-02-07T06:03:05.466Z,14.10
2019-02-07T06:04:05.446Z,14.10
2019-02-07T06:05:05.460Z,15.30
2019-02-07T06:06:05.427Z,15.50
2019-02-07T06:07:05.442Z,14.60
2019-02-07T06:08:05.430Z,14.10
2019-02-07T06:09:05.417Z,15.10
2019-02-07T06:10:05.387Z,15.00
2019-02-07T06:11:05.396Z,14.90
2019-02-07T06:12:05.358Z,15.60
2019-02-07T06:13:05.385Z,15.00
2019-02-07T06:14:05.338Z,15.30
2019-02-07T06:15:05.333Z,15.30
2019-02-07T06:16:05.321Z,15.20
2019-02-07T06:17:05.310Z,14.40
2019-02-07T06:18:05.315Z,14.80
2019-02-07T06:19:05.288Z,13.30
2019-02-07T06:20:05.276Z,14.10
2019-02-07T06:21:05.301Z,15.00
2019-02-07T06:22:05.246Z,14.30
2019-02-07T06:23:05.239Z,15.20
2019-02-07T06:24:05.239Z,14.40
2019-02-07T06:25:05.245Z,14.10
2019-02-07T06:26:05.252Z,14.60
2019-02-07T06:27:05.209Z,14.60
2019-02-07T06:28:05.181Z,14.40
2019-02-07T06:29:05.202Z,14.00
2019-02-07T06:30:05.173Z,14.30
2019-02-07T06:31:05.183Z,13.80
2019-02-07T06:32:05.147Z,14.10
2019-02-07T06:33:05.155Z,13.90
2019-02-07T06:34:07.577Z,14.60
2019-02-07T06:35:05.111Z,14.10
2019-02-07T06:36:05.098Z,14.40
2019-02-07T06:37:05.086Z,13.90
2019-02-07T06:38:05.106Z,13.90
2019-02-07T06:39:05.071Z,14.50
2019-02-07T06:40:05.075Z,13.40
2019-02-07T06:41:05.044Z,14.40
2019-02-07T06:42:05.040Z,14.50
2019-02-07T06:43:05.180Z,15.10
2019-02-07T06:44:05.015Z,14.20
2019-02-07T06:45:06.250Z,14.40
2019-02-07T06:46:04.996Z,14.50
2019-02-07T06:47:13.307Z,14.70
2019-02-07T06:48:05.965Z,14.00
2019-02-07T06:49:05.004Z,14.50
2019-02-07T06:50:04.958Z,14.80
2019-02-07T06:51:04.936Z,13.70
2019-02-07T06:52:04.931Z,14.00
2019-02-07T06:53:04.916Z,14.40
2019-02-07T06:54:04.935Z,15.40
2019-02-07T06:55:04.895Z,14.70
2019-02-07T06:56:04.933Z,14.80
2019-02-07T06:57:04.893Z,14.60
2019-02-07T06:58:04.902Z,15.50
2019-02-07T06:59:04.861Z,15.60
2019-02-07T07:00:04.848Z,15.50
2019-02-07T07:01:04.965Z,15.20
2019-02-07T07:02:04.837Z,15.80
2019-02-07T07:03:04.810Z,16.20
2019-02-07T07:04:04.800Z,15.80
2019-02-07T07:05:04.791Z,15.40
2019-02-07T07:06:04.818Z,16.50
2019-02-07T07:07:04.858Z,17.30
2019-02-07T07:08:04.763Z,16.40
2019-02-07T07:09:04.757Z,16.30
2019-02-07T07:10:04.760Z,16.30
2019-02-07T07:11:04.752Z,17.30
2019-02-07T07:12:04.718Z,17.10
2019-02-07T07:13:04.753Z,18.90
2019-02-07T07:14:04.698Z,18.00
2019-02-07T07:15:04.717Z,17.40
2019-02-07T07:16:04.674Z,19.40
2019-02-07T07:17:04.671Z,18.70
2019-02-07T07:18:04.648Z,18.60
2019-02-07T07:19:04.686Z,19.40
2019-02-07T07:20:04.661Z,18.80
2019-02-07T07:21:04.617Z,18.30
2019-02-07T07:22:04.718Z,19.40
2019-02-07T07:23:05.245Z,20.20
2019-02-07T07:24:04.607Z,19.20
2019-02-07T07:25:04.597Z,20.50
2019-02-07T07:26:04.565Z,19.80
2019-02-07T07:27:04.569Z,19.90
2019-02-07T07:28:04.594Z,20.30
2019-02-07T07:29:04.553Z,20.10
2019-02-07T07:30:04.524Z,21.10
2019-02-07T07:31:04.539Z,20.70
2019-02-07T07:32:04.545Z,21.90
2019-02-07T07:33:04.489Z,20.70
2019-02-07T07:34:04.495Z,21.60
2019-02-07T07:35:04.471Z,21.60
2019-02-07T07:36:04.457Z,22.20
2019-02-07T07:37:04.480Z,22.30
2019-02-07T07:38:04.438Z,22.60
2019-02-07T07:39:04.427Z,21.50
2019-02-07T07:40:04.432Z,21.60
2019-02-07T07:41:04.406Z,20.50
2019-02-07T07:42:04.452Z,22.90
2019-02-07T07:43:04.385Z,22.60
2019-02-07T07:44:04.402Z,22.10
2019-02-07T07:45:04.444Z,21.60
2019-02-07T07:46:04.389Z,21.60
2019-02-07T07:47:04.385Z,21.70
2019-02-07T07:48:04.333Z,22.50
2019-02-07T07:49:04.339Z,22.60
2019-02-07T07:50:04.323Z,24.50
2019-02-07T07:51:04.316Z,25.00
2019-02-07T07:52:04.337Z,24.00
2019-02-07T07:53:04.322Z,25.20
2019-02-07T07:54:04.271Z,23.50
2019-02-07T07:55:04.261Z,24.00
2019-02-07T07:56:04.299Z,23.00
2019-02-07T07:57:04.237Z,23.50
2019-02-07T07:58:04.230Z,21.20
2019-02-07T07:59:04.276Z,24.00
2019-02-07T08:00:04.211Z,23.00
2019-02-07T08:01:04.208Z,24.10
2019-02-07T08:02:04.226Z,24.40
2019-02-07T08:03:04.639Z,24.80
2019-02-07T08:04:04.166Z,23.80
2019-02-07T08:05:04.451Z,25.50
2019-02-07T08:06:04.147Z,24.70
2019-02-07T08:07:04.213Z,24.20
2019-02-07T08:08:04.151Z,25.40
2019-02-07T08:09:04.115Z,24.70
2019-02-07T08:10:04.143Z,25.20
2019-02-07T08:11:06.816Z,24.40
2019-02-07T08:12:04.094Z,23.00
2019-02-07T08:13:04.080Z,26.10
2019-02-07T08:14:04.089Z,26.40
2019-02-07T08:15:04.055Z,26.70
2019-02-07T08:16:04.053Z,24.80
2019-02-07T08:17:04.119Z,25.50
2019-02-07T08:18:04.057Z,24.70
2019-02-07T08:19:04.058Z,24.40
2019-02-07T08:20:04.036Z,24.20
2019-02-07T08:21:04.008Z,23.60
2019-02-07T08:22:05.348Z,24.50
2019-02-07T08:23:04.120Z,24.40
2019-02-07T08:24:03.964Z,26.40
2019-02-07T08:25:04.081Z,25.60
2019-02-07T08:26:03.951Z,25.60
2019-02-07T08:27:03.939Z,25.30
2019-02-07T08:28:03.917Z,24.40
2019-02-07T08:29:03.930Z,24.50
2019-02-07T08:30:03.946Z,24.60
2019-02-07T08:31:03.961Z,25.20
2019-02-07T08:32:03.877Z,25.50
2019-02-07T08:33:03.862Z,27.10
2019-02-07T08:34:03.863Z,25.50
2019-02-07T08:35:03.893Z,25.40
2019-02-07T08:36:03.846Z,24.80
2019-02-07T08:37:03.851Z,26.20
2019-02-07T08:38:03.810Z,24.10
2019-02-07T08:39:03.831Z,24.30
2019-02-07T08:40:03.791Z,24.60
2019-02-07T08:41:03.805Z,25.10
2019-02-07T08:42:03.772Z,24.40
2019-02-07T08:43:03.780Z,24.70
2019-02-07T08:44:03.757Z,23.50
2019-02-07T08:45:03.773Z,24.10
2019-02-07T08:46:03.792Z,23.50
2019-02-07T08:47:03.719Z,25.00
2019-02-07T08:48:04.087Z,24.10
2019-02-07T08:49:03.711Z,23.70
2019-02-07T08:50:03.728Z,22.50
2019-02-07T08:51:03.681Z,23.10
2019-02-07T08:52:03.667Z,23.00
2019-02-07T08:53:03.700Z,23.10
2019-02-07T08:54:03.647Z,23.20
2019-02-07T08:55:03.893Z,21.60
2019-02-07T08:56:03.623Z,23.00
2019-02-07T08:57:03.617Z,23.50
2019-02-07T08:58:03.603Z,22.80
2019-02-07T08:59:03.597Z,21.80
2019-02-07T09:00:03.612Z,22.40
2019-02-07T09:01:03.598Z,22.30
2019-02-07T09:02:03.585Z,21.60
2019-02-07T09:03:03.553Z,21.60
2019-02-07T09:04:03.542Z,22.40
2019-02-07T09:05:03.530Z,23.20
2019-02-07T09:06:03.522Z,23.90
2019-02-07T09:07:03.537Z,22.70
2019-02-07T09:08:03.498Z,22.70
2019-02-07T09:09:03.515Z,23.20
2019-02-07T09:10:03.479Z,23.00
2019-02-07T09:11:03.471Z,22.10
2019-02-07T09:12:03.486Z,23.20
2019-02-07T09:13:03.450Z,21.60
2019-02-07T09:14:03.438Z,21.30
2019-02-07T09:15:03.452Z,21.70
2019-02-07T09:16:03.448Z,21.00
2019-02-07T09:17:03.429Z,19.90
2019-02-07T09:18:10.284Z,18.10
2019-02-07T09:19:04.412Z,18.60
2019-02-07T09:20:03.411Z,17.90
2019-02-07T09:21:03.382Z,17.90
2019-02-07T09:22:03.374Z,18.20
2019-02-07T09:23:03.384Z,18.00
2019-02-07T09:24:03.340Z,17.40
2019-02-07T09:25:03.378Z,17.00
2019-02-07T09:26:03.321Z,15.80
2019-02-07T09:27:03.304Z,16.60
2019-02-07T09:28:03.311Z,14.90
2019-02-07T09:29:03.284Z,16.80
2019-02-07T09:30:03.316Z,15.70
2019-02-07T09:31:03.269Z,15.10
2019-02-07T09:32:03.295Z,15.40
2019-02-07T09:33:03.232Z,15.90
2019-02-07T09:34:03.226Z,15.20
2019-02-07T09:35:03.235Z,14.80
2019-02-07T09:36:05.288Z,15.10
2019-02-07T09:37:03.191Z,14.40
2019-02-07T09:38:03.197Z,15.40
2019-02-07T09:39:03.168Z,15.60
2019-02-07T09:40:03.170Z,15.20
2019-02-07T09:41:03.281Z,14.60
2019-02-07T09:42:03.130Z,14.60
2019-02-07T09:43:03.121Z,13.80
2019-02-07T09:44:03.134Z,15.20
2019-02-07T09:45:03.104Z,14.80
2019-02-07T09:46:03.114Z,14.80
2019-02-07T09:47:03.120Z,14.70
2019-02-07T09:48:03.087Z,14.40
2019-02-07T09:49:03.067Z,15.20
2019-02-07T09:50:03.114Z,14.80
2019-02-07T09:51:03.037Z,14.30
2019-02-07T09:52:03.039Z,15.00
2019-02-07T09:53:03.020Z,13.60
2019-02-07T09:54:03.031Z,14.00
2019-02-07T09:55:03.048Z,13.10
2019-02-07T09:56:03.247Z,11.40
2019-02-07T09:57:02.974Z,11.00
2019-02-07T09:58:03.051Z,10.50
2019-02-07T09:59:04.014Z,11.40
2019-02-07T10:00:02.937Z,9.60
2019-02-07T10:01:02.932Z,9.80
2019-02-07T10:02:02.911Z,8.50
2019-02-07T10:03:02.928Z,8.80
2019-02-07T10:04:02.905Z,9.00
2019-02-07T10:05:02.897Z,8.70
2019-02-07T10:06:02.870Z,8.40
2019-02-07T10:07:02.860Z,8.60
2019-02-07T10:08:02.868Z,8.90
2019-02-07T10:09:03.024Z,8.60
2019-02-07T10:10:02.821Z,8.30
2019-02-07T10:11:02.836Z,8.10
2019-02-07T10:12:02.803Z,7.80
2019-02-07T10:13:02.826Z,7.80
2019-02-07T10:14:02.843Z,7.70
2019-02-07T10:15:02.763Z,7.50
2019-02-07T10:16:02.756Z,7.50
2019-02-07T10:17:02.745Z,8.20
2019-02-07T10:18:02.758Z,7.20
2019-02-07T10:19:02.749Z,7.50
2019-02-07T10:20:02.751Z,7.20
2019-02-07T10:21:02.702Z,7.90
2019-02-07T10:22:02.687Z,7.70
2019-02-07T10:23:02.681Z,7.40
2019-02-07T10:24:02.695Z,7.10
2019-02-07T10:25:02.665Z,7.50
2019-02-07T10:26:02.663Z,6.90
2019-02-07T10:27:05.401Z,7.60
2019-02-07T10:28:02.762Z,7.50
2019-02-07T10:29:02.615Z,7.10
2019-02-07T10:30:02.640Z,6.90
2019-02-07T10:31:02.598Z,7.30
2019-02-07T10:32:05.864Z,7.00
2019-02-07T10:33:02.583Z,5.90
2019-02-07T10:34:02.780Z,6.70
2019-02-07T10:35:02.579Z,6.10
2019-02-07T10:36:02.549Z,6.40
2019-02-07T10:37:02.552Z,6.70
2019-02-07T10:38:02.547Z,6.70
2019-02-07T10:39:02.511Z,6.60
2019-02-07T10:40:02.479Z,6.40
2019-02-07T10:41:02.469Z,6.20
2019-02-07T10:42:02.461Z,6.10
2019-02-07T10:43:02.524Z,5.80
2019-02-07T10:44:02.443Z,6.00
2019-02-07T10:45:02.423Z,5.50
2019-02-07T10:46:02.408Z,5.20
2019-02-07T10:47:02.398Z,5.20
2019-02-07T10:48:02.482Z,5.40
2019-02-07T10:49:02.371Z,5.30
2019-02-07T10:50:02.433Z,5.20
2019-02-07T10:51:02.357Z,4.90
2019-02-07T10:52:02.341Z,4.70
2019-02-07T10:53:02.326Z,4.90
2019-02-07T10:54:02.310Z,4.90
2019-02-07T10:55:02.352Z,4.60
2019-02-07T10:56:02.292Z,4.70
2019-02-07T10:57:02.285Z,5.10
2019-02-07T10:58:02.266Z,4.70
2019-02-07T10:59:02.260Z,4.70
2019-02-07T11:00:02.287Z,4.30
2019-02-07T11:01:02.244Z,4.50
2019-02-07T11:02:02.246Z,4.50
2019-02-07T11:03:02.202Z,4.60
2019-02-07T11:04:02.223Z,4.50
2019-02-07T11:05:02.182Z,4.00
2019-02-07T11:06:02.187Z,4.00
2019-02-07T11:07:02.205Z,4.10
2019-02-07T11:08:02.147Z,4.10
2019-02-07T11:09:02.136Z,3.90
2019-02-07T11:10:02.125Z,3.70
2019-02-07T11:11:02.861Z,3.60
2019-02-07T11:12:02.106Z,3.90
2019-02-07T11:13:02.081Z,4.10
2019-02-07T11:14:02.065Z,3.60
2019-02-07T11:15:02.063Z,3.70
2019-02-07T11:16:02.064Z,3.70
2019-02-07T11:17:03.921Z,3.60
2019-02-07T11:18:02.028Z,3.80
2019-02-07T11:19:02.041Z,3.80
2019-02-07T11:20:02.002Z,3.90
2019-02-07T11:21:01.995Z,3.70
2019-02-07T11:22:01.998Z,3.70
2019-02-07T11:23:01.961Z,3.80
2019-02-07T11:24:02.009Z,3.70
2019-02-07T11:25:01.955Z,3.90
2019-02-07T11:26:01.920Z,3.40
2019-02-07T11:27:01.907Z,3.70
2019-02-07T11:28:10.092Z,4.00
2019-02-07T11:29:03.080Z,3.30
2019-02-07T11:30:01.873Z,4.10
2019-02-07T11:31:01.876Z,3.70
2019-02-07T11:32:01.847Z,4.10
2019-02-07T11:33:01.839Z,3.90
2019-02-07T11:34:01.909Z,4.00
2019-02-07T11:35:01.860Z,3.90
2019-02-07T11:36:01.816Z,3.70
2019-02-07T11:37:01.784Z,3.70
2019-02-07T11:38:01.778Z,3.50
2019-02-07T11:39:01.815Z,3.90
2019-02-07T11:40:01.784Z,3.60
2019-02-07T11:41:01.752Z,3.50
2019-02-07T11:42:01.723Z,3.90
2019-02-07T11:43:01.752Z,3.70
2019-02-07T11:44:01.730Z,3.50
2019-02-07T11:45:01.689Z,3.10
2019-02-07T11:46:01.680Z,3.60
2019-02-07T11:47:05.480Z,3.50
2019-02-07T11:48:02.669Z,3.40
2019-02-07T11:49:06.848Z,3.90
2019-02-07T11:50:02.645Z,3.90
2019-02-07T11:51:01.628Z,3.90
2019-02-07T11:52:01.644Z,3.70
2019-02-07T11:53:01.598Z,3.80
2019-02-07T11:54:01.577Z,4.30
2019-02-07T11:55:01.580Z,4.00
2019-02-07T11:56:01.553Z,3.70
2019-02-07T11:57:01.576Z,3.40
2019-02-07T11:58:01.531Z,3.70
2019-02-07T11:59:01.545Z,3.80
2019-02-07T12:00:01.506Z,3.60
2019-02-07T12:01:01.509Z,3.70
2019-02-07T12:02:08.728Z,3.70
2019-02-07T12:03:02.479Z,3.70
2019-02-07T12:04:01.493Z,3.30
2019-02-07T12:05:01.469Z,3.90
2019-02-07T12:06:01.439Z,3.20
2019-02-07T12:07:01.461Z,3.40
2019-02-07T12:08:01.417Z,3.60
2019-02-07T12:09:01.396Z,3.60
2019-02-07T12:10:01.404Z,3.00
2019-02-07T12:14:29.308Z,3.40
2019-02-07T12:15:28.126Z,3.30
2019-02-07T12:16:28.010Z,3.10
2019-02-07T12:17:28.059Z,3.40
2019-02-07T12:18:28.050Z,4.40
2019-02-07T12:19:27.993Z,4.20
2019-02-07T12:20:27.964Z,4.50
2019-02-07T12:21:27.947Z,3.90
2019-02-07T12:22:27.939Z,3.70
2019-02-07T12:23:28.011Z,3.40
2019-02-07T12:24:27.958Z,3.70
2019-02-07T12:25:27.977Z,3.70
2019-02-07T12:26:27.921Z,3.90
2019-02-07T12:27:27.876Z,3.60
2019-02-07T12:28:27.878Z,3.70
2019-02-07T12:29:27.849Z,3.20
2019-02-07T12:30:27.846Z,3.10
2019-02-07T12:31:32.200Z,3.70
2019-02-07T12:32:27.821Z,3.30
2019-02-07T12:33:27.833Z,3.40
2019-02-07T12:34:27.790Z,3.80
2019-02-07T12:35:27.781Z,3.60
2019-02-07T12:36:27.767Z,3.90
2019-02-07T12:37:27.818Z,3.40
2019-02-07T12:38:27.778Z,3.70
2019-02-07T12:39:27.792Z,4.10
2019-02-07T12:40:27.723Z,3.60
2019-02-07T12:41:27.706Z,3.40
2019-02-07T12:42:27.730Z,3.40
2019-02-07T12:43:27.688Z,3.40
2019-02-07T12:44:27.715Z,3.80
2019-02-07T12:45:27.659Z,3.50
2019-02-07T12:46:27.672Z,3.60
2019-02-07T12:47:27.632Z,3.70
2019-02-07T12:48:27.622Z,4.00
2019-02-07T12:49:29.353Z,3.60
2019-02-07T12:50:27.597Z,3.70
2019-02-07T12:51:27.585Z,3.80
2019-02-07T12:52:27.578Z,3.20
2019-02-07T12:53:27.603Z,3.20
2019-02-07T12:54:27.546Z,4.00
2019-02-07T12:55:27.535Z,3.70
2019-02-07T12:56:27.545Z,3.20
2019-02-07T12:57:27.515Z,3.70
2019-02-07T12:58:27.526Z,3.50
2019-02-07T12:59:27.508Z,3.30
2019-02-07T13:00:27.477Z,3.80
2019-02-07T13:01:27.461Z,3.70